createdAt,value
2022-12-08T00:00:39.043Z,14.85
2022-12-08T00:06:07.600Z,16.92
2022-12-08T00:11:14.075Z,16.88
2022-12-08T00:16:15.976Z,23.13
2022-12-08T00:21:18.011Z,16.98
2022-12-08T00:26:19.871Z,17.75
2022-12-08T00:31:21.916Z,18.13
2022-12-08T00:36:23.824Z,18.42
2022-12-08T00:41:46.254Z,19.52
2022-12-08T00:46:48.722Z,22.85
2022-12-08T00:51:50.966Z,26.73
2022-12-08T00:56:53.054Z,18.85
2022-12-08T01:01:54.950Z,21.38
2022-12-08T01:06:56.797Z,19.00
2022-12-08T01:11:58.860Z,18.08
2022-12-08T01:17:00.767Z,17.40
2022-12-08T01:22:02.689Z,16.52
2022-12-08T01:27:04.905Z,18.42
2022-12-08T01:32:08.491Z,19.90
2022-12-08T01:37:12.579Z,19.17
2022-12-08T01:42:22.595Z,18.42
2022-12-08T01:47:30.205Z,20.02
2022-12-08T01:52:42.888Z,20.98
2022-12-08T01:57:48.953Z,20.55
2022-12-08T02:03:09.167Z,25.40
2022-12-08T02:08:13.444Z,27.92
2022-12-08T02:13:17.855Z,23.77
2022-12-08T02:18:42.995Z,24.20
2022-12-08T02:24:07.496Z,25.83
2022-12-08T02:29:36.054Z,23.83
2022-12-08T02:34:45.053Z,23.98
2022-12-08T02:40:01.259Z,23.40
2022-12-08T02:45:12.487Z,22.30
2022-12-08T02:50:15.625Z,22.60
2022-12-08T02:55:28.196Z,19.63
2022-12-08T03:01:02.853Z,20.25
2022-12-08T03:06:11.654Z,17.92
2022-12-08T03:11:49.007Z,17.08
2022-12-08T03:16:55.383Z,16.45
2022-12-08T03:22:03.115Z,15.65
2022-12-08T03:27:32.018Z,13.93
2022-12-08T03:32:40.675Z,13.60
2022-12-08T03:37:43.584Z,13.80
2022-12-08T03:42:45.580Z,12.77
2022-12-08T03:47:47.988Z,14.38
2022-12-08T03:52:49.836Z,13.75
2022-12-08T03:57:51.723Z,13.80
2022-12-08T04:02:53.919Z,13.02
2022-12-08T04:07:58.169Z,12.77
2022-12-08T04:13:00.461Z,15.70
2022-12-08T04:18:02.765Z,14.68
2022-12-08T04:23:04.788Z,13.98
2022-12-08T04:28:06.976Z,14.23
2022-12-08T04:33:08.877Z,14.35
2022-12-08T04:38:11.017Z,13.68
2022-12-08T04:43:12.891Z,13.88
2022-12-08T04:48:15.679Z,15.57
2022-12-08T04:53:17.914Z,10.83
2022-12-08T04:58:20.315Z,14.18
2022-12-08T05:03:28.544Z,12.70
2022-12-08T05:08:31.266Z,14.70
2022-12-08T05:13:33.454Z,14.68
2022-12-08T05:18:35.967Z,14.88
2022-12-08T05:23:38.119Z,14.25
2022-12-08T05:28:41.738Z,16.33
2022-12-08T05:33:45.323Z,14.77
2022-12-08T05:38:47.737Z,15.13
2022-12-08T05:43:49.674Z,15.20
2022-12-08T05:48:51.719Z,16.88
2022-12-08T05:53:54.055Z,14.93
2022-12-08T05:58:56.010Z,16.50
2022-12-08T06:03:59.700Z,18.80
2022-12-08T06:14:11.228Z,24.77
2022-12-08T06:19:13.800Z,21.73
2022-12-08T06:24:15.765Z,18.80
2022-12-08T06:29:17.592Z,18.67
2022-12-08T06:34:19.506Z,26.33
2022-12-08T06:39:21.362Z,24.05
2022-12-08T06:44:23.431Z,24.85
2022-12-08T06:49:25.630Z,27.95
2022-12-08T06:54:27.747Z,20.27
2022-12-08T06:59:29.702Z,20.17
2022-12-08T07:04:31.702Z,27.90
2022-12-08T07:09:33.834Z,42.80
2022-12-08T07:14:35.696Z,51.97
2022-12-08T07:19:37.823Z,65.07
2022-12-08T07:24:39.724Z,43.35
2022-12-08T07:29:41.809Z,59.35
2022-12-08T07:34:43.681Z,52.83
2022-12-08T07:39:46.269Z,37.65
2022-12-08T07:44:48.121Z,33.75
2022-12-08T07:49:50.138Z,45.17
2022-12-08T07:54:52.017Z,33.30
2022-12-08T07:59:53.882Z,29.27
2022-12-08T08:04:55.809Z,34.92
2022-12-08T08:09:58.116Z,39.45
2022-12-08T08:15:01.638Z,53.47
2022-12-08T08:20:08.354Z,45.83
2022-12-08T08:25:10.321Z,38.97
2022-12-08T08:35:22.532Z,32.72
2022-12-08T08:40:25.651Z,28.57
2022-12-08T08:45:28.416Z,34.38
2022-12-08T08:50:37.227Z,28.23
2022-12-08T08:55:40.420Z,32.10
2022-12-08T09:00:43.853Z,31.17
2022-12-08T09:05:45.908Z,24.30
2022-12-08T09:10:47.872Z,22.50
2022-12-08T09:15:49.940Z,19.20
2022-12-08T09:20:52.245Z,23.15
2022-12-08T09:25:54.152Z,22.80
2022-12-08T09:30:56.192Z,19.88
2022-12-08T09:36:02.754Z,20.60
2022-12-08T09:41:14.667Z,27.02
2022-12-08T09:46:18.149Z,24.88
2022-12-08T09:51:20.035Z,26.15
2022-12-08T09:56:25.457Z,23.85
2022-12-08T10:01:31.181Z,22.80
2022-12-08T10:06:36.410Z,23.20
2022-12-08T10:11:47.349Z,25.90
2022-12-08T10:16:52.150Z,26.70
2022-12-08T10:21:56.983Z,35.65
2022-12-08T10:26:59.333Z,28.75
2022-12-08T10:32:09.131Z,31.67
2022-12-08T10:37:11.410Z,23.77
2022-12-08T10:42:22.224Z,28.60
2022-12-08T10:47:26.865Z,35.42
2022-12-08T10:52:28.742Z,26.52
2022-12-08T10:57:30.620Z,25.50
2022-12-08T11:02:32.825Z,28.42
2022-12-08T11:07:35.005Z,34.45
2022-12-08T11:12:37.555Z,39.75
2022-12-08T11:17:39.565Z,50.20
2022-12-08T11:22:44.487Z,54.67
2022-12-08T11:27:48.864Z,49.72
2022-12-08T11:32:57.362Z,49.78
2022-12-08T11:38:20.487Z,51.20
2022-12-08T11:43:34.507Z,45.67
2022-12-08T11:49:18.028Z,39.10
2022-12-08T11:54:32.921Z,37.25
2022-12-08T11:59:47.241Z,35.67
2022-12-08T12:05:01.928Z,35.40
2022-12-08T12:10:28.733Z,32.00
2022-12-08T12:16:07.869Z,33.15
2022-12-08T12:21:23.939Z,34.50
2022-12-08T12:26:29.424Z,35.58
2022-12-08T12:31:35.322Z,35.60
2022-12-08T12:36:57.838Z,36.78
2022-12-08T12:42:04.874Z,38.35
2022-12-08T12:47:12.156Z,33.63
2022-12-08T12:52:17.142Z,31.55
2022-12-08T12:57:18.968Z,39.67
2022-12-08T13:02:24.088Z,39.47
2022-12-08T13:07:29.991Z,34.42
2022-12-08T13:12:32.001Z,33.78
2022-12-08T13:17:37.263Z,35.33
2022-12-08T13:23:09.966Z,30.08
2022-12-08T13:28:31.178Z,27.98
2022-12-08T13:33:38.008Z,35.47
2022-12-08T13:38:43.150Z,32.00
2022-12-08T13:44:50.386Z,42.72
2022-12-08T13:55:58.820Z,32.92
2022-12-08T14:00:24.081Z,32.63
2022-12-08T14:06:10.537Z,34.78
2022-12-08T14:11:06.274Z,34.55
2022-12-08T14:16:28.321Z,44.08
2022-12-08T14:21:35.826Z,50.58
2022-12-08T14:26:38.702Z,47.33
2022-12-08T14:31:40.839Z,47.17
2022-12-08T14:36:42.869Z,53.25
2022-12-08T14:42:00.305Z,49.70
2022-12-08T14:47:10.695Z,54.97
2022-12-08T14:52:12.727Z,47.65
2022-12-08T14:57:15.236Z,54.45
2022-12-08T15:02:21.741Z,43.03
2022-12-08T15:07:30.028Z,69.30
2022-12-08T15:12:33.303Z,61.53
2022-12-08T15:17:48.987Z,62.75
2022-12-08T15:22:51.558Z,70.35
2022-12-08T15:27:53.760Z,81.70
2022-12-08T15:32:56.341Z,59.90
2022-12-08T15:37:58.383Z,68.15
2022-12-08T15:43:00.288Z,50.03
2022-12-08T15:48:02.248Z,45.83
2022-12-08T15:53:04.203Z,38.58
2022-12-08T16:09:06.212Z,49.15
2022-12-08T16:15:01.705Z,49.30
2022-12-08T16:19:35.323Z,53.22
2022-12-08T16:24:37.251Z,47.50
2022-12-08T16:29:39.050Z,50.45
2022-12-08T16:34:42.141Z,51.60
2022-12-08T16:39:46.197Z,48.30
2022-12-08T16:44:49.668Z,45.50
2022-12-08T16:49:51.916Z,42.65
2022-12-08T16:54:53.797Z,44.05
2022-12-08T16:59:55.721Z,47.10
2022-12-08T17:04:57.689Z,43.13
2022-12-08T17:09:59.645Z,47.08
2022-12-08T17:15:07.117Z,64.30
2022-12-08T17:20:13.336Z,63.00
2022-12-08T17:25:16.059Z,52.65
2022-12-08T17:30:19.180Z,45.95
2022-12-08T17:35:21.594Z,46.42
2022-12-08T17:40:27.986Z,50.53
2022-12-08T17:45:30.276Z,45.38
2022-12-08T17:50:32.320Z,38.60
2022-12-08T17:55:34.915Z,40.25
2022-12-08T18:00:37.084Z,65.28
2022-12-08T18:05:39.016Z,52.35
2022-12-08T18:10:40.933Z,46.55
2022-12-08T18:15:43.009Z,45.38
2022-12-08T18:20:44.865Z,45.05
2022-12-08T18:25:47.135Z,51.17
2022-12-08T18:30:49.315Z,55.67
2022-12-08T18:35:51.721Z,49.03
2022-12-08T18:40:53.615Z,51.63
2022-12-08T18:46:04.391Z,60.97
2022-12-08T18:51:14.695Z,55.80
2022-12-08T18:56:30.760Z,54.15
2022-12-08T19:01:34.803Z,50.13
2022-12-08T19:06:39.227Z,52.88
2022-12-08T19:11:41.958Z,56.03
2022-12-08T19:16:44.062Z,51.47
2022-12-08T19:21:46.823Z,48.90
2022-12-08T19:26:48.932Z,59.30
2022-12-08T19:31:51.073Z,55.42
2022-12-08T19:36:53.459Z,52.53
2022-12-08T19:42:14.436Z,51.28
2022-12-08T19:47:16.527Z,54.28
2022-12-08T19:52:18.795Z,44.63
2022-12-08T19:57:20.900Z,41.00
2022-12-08T20:02:22.908Z,39.25
2022-12-08T20:07:24.907Z,47.95
2022-12-08T20:12:26.764Z,42.75
2022-12-08T20:17:28.694Z,43.08
2022-12-08T20:22:30.667Z,43.40
2022-12-08T20:27:33.365Z,53.85
2022-12-08T20:32:35.319Z,46.90
2022-12-08T20:37:37.615Z,41.40
2022-12-08T20:42:39.689Z,49.33
2022-12-08T20:47:41.685Z,52.25
2022-12-08T20:52:43.681Z,63.35
2022-12-08T20:57:45.766Z,54.53
2022-12-08T21:02:53.317Z,48.08
2022-12-08T21:07:58.207Z,50.63
2022-12-08T21:13:02.097Z,56.38
2022-12-08T21:18:04.378Z,51.40
2022-12-08T21:23:06.275Z,48.15
2022-12-08T21:28:08.422Z,48.72
2022-12-08T21:33:10.359Z,55.55
2022-12-08T21:38:12.768Z,41.58
2022-12-08T21:43:14.919Z,48.80
2022-12-08T21:48:17.448Z,49.28
2022-12-08T21:53:20.775Z,48.13
2022-12-08T21:58:22.902Z,52.97
2022-12-08T22:03:24.814Z,43.55
2022-12-08T22:08:27.914Z,47.60
2022-12-08T22:13:30.044Z,46.92
2022-12-08T22:18:32.730Z,43.63
2022-12-08T22:23:34.978Z,47.40
2022-12-08T22:28:39.871Z,60.35
2022-12-08T22:33:42.675Z,62.50
2022-12-08T22:38:44.954Z,54.90
2022-12-08T22:43:47.894Z,51.70
2022-12-08T22:48:51.044Z,51.58
2022-12-08T22:53:53.074Z,53.25
2022-12-08T22:58:55.147Z,45.90
2022-12-08T23:03:58.408Z,45.97
2022-12-08T23:09:00.828Z,45.72
2022-12-08T23:14:03.428Z,44.08
2022-12-08T23:19:05.587Z,47.65
2022-12-08T23:24:07.511Z,52.33
2022-12-08T23:29:09.524Z,49.22
2022-12-08T23:34:11.667Z,49.75
2022-12-08T23:39:13.676Z,52.90
2022-12-08T23:44:15.559Z,46.97
2022-12-08T23:49:17.652Z,49.22
2022-12-08T23:54:19.532Z,43.97
2022-12-08T23:59:21.435Z,45.85
